createdAt,value
2022-09-22T00:16:22.545Z,95.4
2022-09-22T00:35:31.041Z,95.7
2022-09-22T00:56:12.189Z,95.9
2022-09-22T01:15:23.998Z,96.2
2022-09-22T01:36:09.693Z,96.5
2022-09-22T01:55:52.216Z,96.7
2022-09-22T02:15:24.226Z,96.7
2022-09-22T02:35:38.485Z,96.7
2022-09-22T02:56:41.093Z,96.7
2022-09-22T03:16:10.263Z,96.8
2022-09-22T03:36:41.375Z,96.8
2022-09-22T03:55:26.105Z,96.9
2022-09-22T04:16:23.659Z,96.9
2022-09-22T04:36:10.924Z,96.9
2022-09-22T04:56:04.092Z,97
2022-09-22T05:16:04.418Z,97.1
2022-09-22T05:35:58.664Z,97.1
2022-09-22T05:56:29.563Z,96.9
2022-09-22T06:16:26.177Z,96.9
2022-09-22T06:36:17.634Z,97
2022-09-22T06:56:06.337Z,96.9
2022-09-22T07:17:01.342Z,96.8
2022-09-22T07:37:12.210Z,96.3
2022-09-22T07:55:51.995Z,95.4
2022-09-22T08:16:45.574Z,94
2022-09-22T08:35:25.349Z,91.8
2022-09-22T08:56:09.226Z,87.4
2022-09-22T09:16:47.962Z,83
2022-09-22T09:37:07.166Z,76.8
2022-09-22T09:56:25.187Z,69.2
2022-09-22T10:15:51.398Z,61.3
2022-09-22T10:36:14.101Z,55.3
2022-09-22T10:56:07.175Z,47.9
2022-09-22T11:16:56.762Z,44.9
2022-09-22T11:37:19.244Z,40.2
2022-09-22T11:56:43.136Z,37.8
2022-09-22T12:16:21.964Z,36.7
2022-09-22T12:36:49.719Z,42.5
2022-09-22T12:56:25.936Z,41.6
2022-09-22T13:16:26.033Z,36.6
2022-09-22T13:37:31.792Z,35.6
2022-09-22T13:56:10.244Z,37.4
2022-09-22T14:16:01.404Z,38.7
2022-09-22T14:36:47.960Z,47.5
2022-09-22T14:57:21.521Z,49
2022-09-22T15:16:40.775Z,50.3
2022-09-22T15:36:18.187Z,53.2
2022-09-22T15:55:36.736Z,53.7
2022-09-22T16:16:32.748Z,56
2022-09-22T16:36:46.728Z,57.6
2022-09-22T16:56:10.592Z,66.6
2022-09-22T17:16:46.487Z,70
2022-09-22T17:36:17.307Z,73.2
2022-09-22T17:56:08.802Z,75.2
2022-09-22T18:17:12.841Z,77.7
2022-09-22T18:36:52.742Z,80.1
2022-09-22T18:56:39.755Z,81.4
2022-09-22T19:17:04.457Z,82.3
2022-09-22T19:36:36.228Z,83.3
2022-09-22T19:56:37.748Z,84.1
2022-09-22T20:16:20.468Z,86.2
2022-09-22T20:36:56.655Z,86.8
2022-09-22T20:57:55.097Z,87.7
2022-09-22T21:16:53.562Z,87.6
2022-09-22T21:36:21.914Z,87.7
2022-09-22T21:56:48.495Z,88.1
2022-09-22T22:16:11.623Z,88.8
2022-09-22T22:36:08.729Z,89.7
2022-09-22T22:56:46.786Z,89.9
2022-09-22T23:16:24.045Z,90.3
2022-09-22T23:36:29.823Z,90.6
2022-09-22T23:56:18.449Z,91.2
